Time;durP1;ratioP1;P1;durP2;ratioP2;P2;SDS_P1;SDS_P2;PMS_P1;PMS_P2;Temp;Humidity;BMP_temperature;BMP_pressure;BME280_temperature;BME280_humidity;BME280_pressure;Samples;Min_cycle;Max_cycle;Signal;HPM_P1;HPM_P2
2021/01/13 04:08:11;;;;;;;4.15;2.90;;;2.40;99.90;;;;;;5811089;23;20239;-76
2021/01/13 04:10:37;;;;;;;3.42;2.90;;;2.40;99.90;;;;;;5042510;28;20525;-76
2021/01/13 04:13:21;;;;;;;3.05;2.72;;;2.40;99.90;;;;;;5032023;28;20800;-77
2021/01/13 04:15:51;;;;;;;4.82;2.60;;;2.40;99.90;;;;;;5033611;28;20576;-76
2021/01/13 04:18:18;;;;;;;2.83;2.63;;;2.30;99.90;;;;;;5035891;28;20475;-77
2021/01/13 04:20:44;;;;;;;4.13;2.60;;;2.30;99.90;;;;;;5018074;28;20654;-70
2021/01/13 04:23:10;;;;;;;4.03;2.63;;;2.30;99.90;;;;;;5035451;28;20343;-78
2021/01/13 04:25:36;;;;;;;3.53;2.80;;;2.30;99.90;;;;;;5035681;28;20179;-75
2021/01/13 04:28:02;;;;;;;2.55;2.13;;;2.30;99.90;;;;;;5018030;28;20203;-69
2021/01/13 04:30:28;;;;;;;3.03;2.40;;;2.30;99.90;;;;;;5035511;28;20173;-70
2021/01/13 04:32:55;;;;;;;2.70;2.50;;;2.20;99.90;;;;;;5035643;28;20611;-77
2021/01/13 04:35:25;;;;;;;4.70;2.78;;;2.20;99.90;;;;;;5035668;28;20665;-77
2021/01/13 04:37:55;;;;;;;2.80;2.60;;;2.20;99.90;;;;;;5017402;28;20204;-77
2021/01/13 04:40:23;;;;;;;2.70;2.50;;;2.20;99.90;;;;;;5035652;28;20173;-77
2021/01/13 04:43:09;;;;;;;2.40;2.20;;;2.20;99.90;;;;;;5035558;28;20173;-77
2021/01/13 04:45:46;;;;;;;2.88;2.60;;;2.30;99.90;;;;;;5034813;28;20246;-76
2021/01/13 04:48:19;;;;;;;2.67;2.40;;;2.20;99.90;;;;;;5035232;28;20196;-77
2021/01/13 04:50:50;;;;;;;3.35;2.65;;;2.20;99.90;;;;;;5035469;28;20211;-76
2021/01/13 04:53:18;;;;;;;2.60;2.40;;;2.20;99.90;;;;;;5017199;28;20203;-77
2021/01/13 04:55:56;;;;;;;4.05;2.22;;;2.20;99.90;;;;;;5035049;28;20195;-76
2021/01/13 04:58:43;;;;;;;2.30;2.10;;;2.20;99.90;;;;;;5035085;28;20188;-76
2021/01/13 05:01:27;;;;;;;3.15;2.72;;;2.20;99.90;;;;;;5017248;28;20223;-70
2021/01/13 05:04:12;;;;;;;2.63;2.42;;;2.20;99.90;;;;;;5035197;28;20319;-70
2021/01/13 05:06:38;;;;;;;2.50;2.30;;;2.20;99.90;;;;;;5034878;28;20218;-70
2021/01/13 05:09:06;;;;;;;2.90;2.70;;;2.20;99.90;;;;;;5016791;28;20227;-70
2021/01/13 05:11:45;;;;;;;3.00;2.70;;;2.20;99.90;;;;;;5035032;28;20173;-70
2021/01/13 05:14:12;;;;;;;2.80;2.53;;;2.20;99.90;;;;;;5016930;28;20200;-70
2021/01/13 05:16:50;;;;;;;3.13;2.83;;;2.20;99.90;;;;;;5016943;28;20173;-71
2021/01/13 05:19:49;;;;;;;2.58;2.38;;;2.20;99.90;;;;;;5016953;28;20614;-70
2021/01/13 05:22:16;;;;;;;2.92;2.72;;;2.20;99.90;;;;;;5034695;28;20180;-70
2021/01/13 05:24:42;;;;;;;2.75;2.42;;;2.20;99.90;;;;;;5016572;28;20193;-76
2021/01/13 05:27:48;;;;;;;3.75;3.10;;;2.20;99.90;;;;;;5034139;28;20253;-77
2021/01/13 05:30:14;;;;;;;3.92;3.20;;;2.20;99.90;;;;;;5008443;28;20184;-76
2021/01/13 05:32:41;;;;;;;5.18;2.90;;;2.20;99.90;;;;;;5034426;28;20704;-77
2021/01/13 05:35:08;;;;;;;3.55;2.97;;;2.20;99.90;;;;;;5033951;28;20172;-76
2021/01/13 05:37:46;;;;;;;3.38;3.08;;;2.20;99.90;;;;;;5034319;28;20546;-76
2021/01/13 05:40:14;;;;;;;4.15;3.20;;;2.20;99.90;;;;;;5033732;28;20217;-77
2021/01/13 05:42:40;;;;;;;4.78;3.65;;;2.30;99.90;;;;;;5039412;28;20605;-78
2021/01/13 05:45:06;;;;;;;5.22;3.65;;;2.30;99.90;;;;;;5043378;28;20251;-77
2021/01/13 05:47:55;;;;;;;3.75;3.35;;;2.30;99.90;;;;;;5050907;28;20230;-77
2021/01/13 05:50:23;;;;;;;4.10;3.70;;;2.30;99.90;;;;;;5048312;28;20178;-76
2021/01/13 05:52:51;;;;;;;4.50;4.10;;;2.30;99.90;;;;;;5044627;28;20534;-77
2021/01/13 05:55:19;;;;;;;5.25;4.50;;;2.30;99.90;;;;;;5024582;28;20199;-76
2021/01/13 05:58:02;;;;;;;5.85;4.38;;;2.30;99.90;;;;;;5025770;28;20211;-75
2021/01/13 06:00:32;;;;;;;6.30;4.38;;;2.30;99.90;;;;;;5034302;28;20226;-76
2021/01/13 06:03:03;;;;;;;5.65;3.90;;;2.40;99.90;;;;;;5042294;28;20202;-77
2021/01/13 06:05:30;;;;;;;5.20;4.43;;;2.30;99.90;;;;;;5052836;28;20265;-76
2021/01/13 06:07:58;;;;;;;4.60;4.20;;;2.30;99.90;;;;;;5040340;28;20205;-77
2021/01/13 06:10:33;;;;;;;4.53;4.13;;;2.30;99.90;;;;;;5015497;28;20199;-77
2021/01/13 06:13:01;;;;;;;5.07;4.18;;;2.30;99.90;;;;;;5039039;28;20190;-77
2021/01/13 06:15:29;;;;;;;4.50;4.10;;;2.40;99.90;;;;;;5043888;28;20259;-77
2021/01/13 06:17:57;;;;;;;4.32;3.92;;;2.30;99.90;;;;;;5031811;28;20246;-77
2021/01/13 06:20:28;;;;;;;5.75;4.18;;;2.30;99.90;;;;;;5034769;28;20177;-77
2021/01/13 06:22:56;;;;;;;4.80;4.20;;;2.30;99.90;;;;;;5015419;28;20216;-77
2021/01/13 06:25:25;;;;;;;7.38;4.40;;;2.30;99.90;;;;;;5037068;28;20183;-78
2021/01/13 06:28:22;;;;;;;4.55;3.90;;;2.30;99.90;;;;;;5045760;28;20212;-78
2021/01/13 06:30:59;;;;;;;4.65;4.25;;;2.30;99.90;;;;;;5035668;28;20187;-77
2021/01/13 06:33:32;;;;;;;5.03;4.47;;;2.30;99.90;;;;;;5035468;28;20191;-78
2021/01/13 06:36:22;;;;;;;5.35;4.47;;;2.30;99.90;;;;;;5046952;28;20195;-78
2021/01/13 06:39:00;;;;;;;5.47;4.80;;;2.30;99.90;;;;;;5033880;28;20689;-78
2021/01/13 06:41:27;;;;;;;4.75;4.05;;;2.30;99.90;;;;;;5051331;28;20240;-78
2021/01/13 06:44:04;;;;;;;4.93;4.35;;;2.30;99.90;;;;;;5049077;28;20199;-78
2021/01/13 06:46:32;;;;;;;5.95;4.30;;;2.30;99.90;;;;;;5052434;28;20205;-78
2021/01/13 06:49:20;;;;;;;5.57;4.45;;;2.30;99.90;;;;;;5034993;28;20195;-78
2021/01/13 06:51:50;;;;;;;5.20;4.70;;;2.30;99.90;;;;;;5053334;28;20164;-78
2021/01/13 06:54:18;;;;;;;4.78;4.25;;;2.30;99.90;;;;;;5034384;28;20222;-78
2021/01/13 06:56:50;;;;;;;5.03;4.35;;;2.30;99.90;;;;;;5035055;28;20234;-78
2021/01/13 06:59:16;;;;;;;4.38;3.97;;;2.40;99.90;;;;;;5052928;28;20661;-78
2021/01/13 07:01:52;;;;;;;5.80;4.00;;;2.30;99.90;;;;;;5034512;28;20187;-78
2021/01/13 07:04:18;;;;;;;5.15;4.55;;;2.30;99.90;;;;;;5052757;28;20210;-78
2021/01/13 07:07:06;;;;;;;5.72;4.78;;;2.30;99.90;;;;;;5052642;28;20214;-78
2021/01/13 07:09:36;;;;;;;5.15;4.65;;;2.30;99.90;;;;;;5052409;28;20274;-79
2021/01/13 07:12:11;;;;;;;6.65;4.80;;;2.30;99.90;;;;;;5052553;28;20172;-78
2021/01/13 07:14:39;;;;;;;5.95;5.28;;;2.30;99.90;;;;;;5034357;28;20227;-78
2021/01/13 07:17:08;;;;;;;6.22;4.90;;;2.30;99.90;;;;;;5052575;28;20258;-78
2021/01/13 07:19:37;;;;;;;7.10;4.82;;;2.30;99.90;;;;;;5052670;28;20222;-78
2021/01/13 07:22:04;;;;;;;5.13;4.63;;;2.30;99.90;;;;;;5034479;28;20242;-79
2021/01/13 07:24:31;;;;;;;6.60;4.90;;;2.30;99.90;;;;;;5052081;28;20194;-79
2021/01/13 07:26:57;;;;;;;8.77;5.20;;;2.30;99.90;;;;;;5052082;28;20211;-78
2021/01/13 07:29:27;;;;;;;8.32;5.22;;;2.30;99.90;;;;;;5052359;28;20206;-79
2021/01/13 07:31:58;;;;;;;7.22;5.60;;;2.30;99.90;;;;;;5052273;28;20168;-78
2021/01/13 07:34:39;;;;;;;8.23;5.40;;;2.30;99.90;;;;;;5052134;28;20275;-78
2021/01/13 07:37:16;;;;;;;6.32;5.45;;;2.30;99.90;;;;;;5052218;28;20255;-79
2021/01/13 07:40:02;;;;;;;7.53;5.90;;;2.30;99.90;;;;;;5051705;28;20195;-79
2021/01/13 07:42:36;;;;;;;6.93;6.10;;;2.30;99.90;;;;;;5052189;28;20175;-78
2021/01/13 07:45:08;;;;;;;7.57;6.43;;;2.30;99.90;;;;;;5052089;28;20318;-78
2021/01/13 07:47:56;;;;;;;7.65;6.85;;;2.20;99.90;;;;;;5033730;28;20238;-79
2021/01/13 07:50:22;;;;;;;8.15;6.78;;;2.40;99.90;;;;;;5051960;28;20263;-79
2021/01/13 07:52:51;;;;;;;8.00;6.78;;;2.40;99.90;;;;;;5051753;28;20171;-79
2021/01/13 07:55:18;;;;;;;8.23;7.25;;;2.40;99.90;;;;;;5033904;28;20335;-80
2021/01/13 07:57:52;;;;;;;8.23;6.47;;;2.40;99.90;;;;;;5033732;28;20172;-79
2021/01/13 08:00:36;;;;;;;9.52;8.50;;;2.40;99.90;;;;;;5051786;28;20230;-79
2021/01/13 08:03:39;;;;;;;8.32;7.32;;;2.40;99.90;;;;;;5033536;28;20218;-80
2021/01/13 08:06:30;;;;;;;10.55;7.40;;;2.40;99.90;;;;;;5033538;28;20269;-78
2021/01/13 08:09:15;;;;;;;8.38;7.10;;;2.40;99.90;;;;;;5052570;28;20274;-80
2021/01/13 08:11:52;;;;;;;8.85;7.95;;;2.40;99.90;;;;;;5051486;28;20171;-78
2021/01/13 08:14:45;;;;;;;9.13;7.38;;;2.50;99.90;;;;;;5051405;28;20228;-79
2021/01/13 08:17:54;;;;;;;8.57;7.78;;;2.50;99.90;;;;;;5052058;28;20206;-79
2021/01/13 08:20:42;;;;;;;8.60;7.15;;;2.50;99.90;;;;;;4948848;28;21293;-79
2021/01/13 08:23:21;;;;;;;8.43;7.10;;;2.50;99.90;;;;;;5033069;28;20274;-79
2021/01/13 08:26:05;;;;;;;13.18;7.95;;;2.50;99.90;;;;;;5033302;28;20191;-78
2021/01/13 08:28:38;;;;;;;8.25;7.45;;;2.50;99.90;;;;;;5050790;28;20648;-76
2021/01/13 08:31:05;;;;;;;9.02;7.80;;;2.50;99.90;;;;;;5051158;28;20218;-76
2021/01/13 08:33:34;;;;;;;8.38;7.35;;;2.50;99.90;;;;;;5033415;28;20210;-75
2021/01/13 08:36:10;;;;;;;9.55;8.55;;;2.50;99.90;;;;;;5051131;28;20609;-75
2021/01/13 08:38:36;;;;;;;8.40;7.50;;;2.50;99.90;;;;;;5051004;28;20187;-75
2021/01/13 08:41:22;;;;;;;9.57;7.90;;;2.50;99.90;;;;;;5051365;28;20172;-77
2021/01/13 08:44:15;;;;;;;9.95;7.93;;;2.50;99.90;;;;;;5051324;28;20187;-76
2021/01/13 08:46:47;;;;;;;8.60;7.63;;;2.50;99.90;;;;;;5047337;28;20223;-76
2021/01/13 08:49:25;;;;;;;9.30;8.32;;;2.50;99.90;;;;;;5051579;28;20191;-75
2021/01/13 08:52:23;;;;;;;9.20;7.03;;;2.60;99.90;;;;;;5051468;28;20168;-75
2021/01/13 08:54:49;;;;;;;8.60;7.70;;;2.60;99.90;;;;;;5020530;28;20238;-75
2021/01/13 08:57:16;;;;;;;9.40;8.40;;;2.60;99.90;;;;;;5033129;28;20222;-75
2021/01/13 08:59:43;;;;;;;8.48;7.68;;;2.60;99.90;;;;;;5033153;28;20219;-76
2021/01/13 09:02:24;;;;;;;10.00;8.13;;;2.60;99.90;;;;;;5054420;28;20646;-75
2021/01/13 09:04:56;;;;;;;8.50;7.43;;;2.60;99.90;;;;;;5055191;28;20192;-76
2021/01/13 09:07:23;;;;;;;8.55;7.65;;;2.60;99.90;;;;;;5054610;28;20218;-75
2021/01/13 09:10:03;;;;;;;11.52;8.95;;;2.60;99.90;;;;;;5054512;28;20771;-75
2021/01/13 09:12:43;;;;;;;9.25;8.15;;;2.60;99.90;;;;;;5054583;28;20172;-75
2021/01/13 09:15:08;;;;;;;8.20;7.40;;;2.60;99.90;;;;;;5036827;28;20172;-75
2021/01/13 09:17:42;;;;;;;9.32;8.32;;;2.70;99.90;;;;;;5036908;28;20633;-78
2021/01/13 09:20:11;;;;;;;8.55;7.70;;;2.70;99.90;;;;;;5036876;28;20175;-78
2021/01/13 09:22:51;;;;;;;10.82;8.05;;;2.70;99.90;;;;;;5036721;28;20598;-78
2021/01/13 09:25:28;;;;;;;10.93;6.97;;;2.70;99.90;;;;;;5054566;28;20171;-77
2021/01/13 09:28:15;;;;;;;10.07;6.38;;;2.70;99.90;;;;;;5036612;28;20241;-77
2021/01/13 09:30:42;;;;;;;9.13;6.97;;;2.80;99.90;;;;;;5044406;28;20211;-78
2021/01/13 09:33:16;;;;;;;9.90;7.85;;;2.80;99.90;;;;;;5040161;28;20200;-78
2021/01/13 09:35:58;;;;;;;9.35;7.80;;;2.80;99.90;;;;;;5025555;28;20175;-77
2021/01/13 09:38:34;;;;;;;9.27;7.32;;;2.80;99.90;;;;;;5044657;28;20192;-78
2021/01/13 09:41:01;;;;;;;10.02;6.63;;;2.90;99.90;;;;;;5026568;28;20172;-77
2021/01/13 09:43:46;;;;;;;9.05;7.93;;;2.90;99.90;;;;;;5042801;28;20223;-77
2021/01/13 09:46:21;;;;;;;9.50;7.30;;;2.90;99.90;;;;;;5027049;28;20673;-77
2021/01/13 09:49:11;;;;;;;10.57;7.72;;;2.90;99.90;;;;;;5016503;28;20192;-77
2021/01/13 09:51:40;;;;;;;9.88;7.32;;;2.90;99.90;;;;;;5034267;28;20379;-77
2021/01/13 09:54:08;;;;;;;9.50;7.45;;;2.90;99.90;;;;;;5033737;28;20274;-78
2021/01/13 09:56:35;;;;;;;8.23;7.43;;;2.90;99.90;;;;;;5016338;28;20172;-78
2021/01/13 09:59:03;;;;;;;9.85;7.72;;;2.90;99.90;;;;;;5036690;28;20202;-78
2021/01/13 10:01:35;;;;;;;8.98;8.02;;;2.90;99.90;;;;;;5026810;28;20168;-78
2021/01/13 10:04:09;;;;;;;8.55;7.28;;;2.90;99.90;;;;;;5025885;28;20246;-78
2021/01/13 10:06:39;;;;;;;10.18;7.72;;;2.90;99.90;;;;;;5042821;28;20201;-78
2021/01/13 10:09:10;;;;;;;8.30;7.50;;;2.90;99.90;;;;;;5042015;28;20223;-78
2021/01/13 10:11:36;;;;;;;10.98;7.90;;;2.90;99.90;;;;;;5045122;28;20257;-78
2021/01/13 10:14:04;;;;;;;13.32;8.60;;;2.90;99.90;;;;;;5042186;28;20219;-78
2021/01/13 10:16:31;;;;;;;10.75;7.55;;;2.90;99.90;;;;;;5015793;28;20639;-78
2021/01/13 10:19:04;;;;;;;9.05;7.70;;;2.90;99.90;;;;;;5033650;28;20547;-78
2021/01/13 10:21:42;;;;;;;10.68;7.85;;;2.90;99.90;;;;;;5033611;28;20270;-78
2021/01/13 10:24:10;;;;;;;8.40;6.97;;;3.00;99.90;;;;;;5015347;28;20189;-78
2021/01/13 10:26:36;;;;;;;9.00;6.93;;;3.00;99.90;;;;;;5033485;28;20601;-78
2021/01/13 10:29:02;;;;;;;9.13;6.88;;;3.10;99.90;;;;;;5015424;28;20200;-79
2021/01/13 10:31:29;;;;;;;10.10;7.77;;;3.10;99.90;;;;;;5015264;28;20491;-79
2021/01/13 10:33:55;;;;;;;10.07;6.80;;;3.20;99.90;;;;;;5033369;28;20280;-78
2021/01/13 10:36:44;;;;;;;10.25;7.03;;;3.30;99.90;;;;;;5019783;28;20695;-78
2021/01/13 10:39:22;;;;;;;8.25;6.35;;;3.40;99.90;;;;;;5019149;28;20215;-77
2021/01/13 10:42:05;;;;;;;7.03;6.25;;;3.40;99.90;;;;;;5052828;28;20172;-78
2021/01/13 10:44:32;;;;;;;10.68;6.40;;;3.40;99.90;;;;;;5032861;28;20192;-78
2021/01/13 10:47:06;;;;;;;8.40;6.40;;;3.40;99.90;;;;;;5038447;28;20249;-77
2021/01/13 10:49:37;;;;;;;7.55;6.15;;;3.40;99.90;;;;;;5052058;28;20184;-78
2021/01/13 10:52:14;;;;;;;7.80;6.13;;;3.40;99.90;;;;;;5033222;28;20179;-78
2021/01/13 10:54:49;;;;;;;8.98;6.68;;;3.40;99.90;;;;;;5042030;28;20692;-77
2021/01/13 10:57:23;;;;;;;6.93;5.93;;;3.40;99.90;;;;;;5052708;28;20175;-78
2021/01/13 11:00:03;;;;;;;9.50;6.70;;;3.40;99.90;;;;;;5051527;28;20279;-77
2021/01/13 11:02:28;;;;;;;9.20;6.18;;;3.30;99.90;;;;;;5034902;28;20175;-78
2021/01/13 11:04:59;;;;;;;9.55;5.85;;;3.40;99.90;;;;;;5052514;28;20650;-77
2021/01/13 11:07:35;;;;;;;7.38;6.00;;;3.40;99.90;;;;;;5052414;28;20294;-78
2021/01/13 11:10:02;;;;;;;7.85;6.25;;;3.40;99.90;;;;;;5034224;28;20227;-77
2021/01/13 11:12:28;;;;;;;8.57;6.47;;;3.30;99.90;;;;;;5034614;28;20229;-77
2021/01/13 11:14:54;;;;;;;8.77;5.80;;;3.30;99.90;;;;;;5039493;28;20608;-76
2021/01/13 11:17:21;;;;;;;8.10;6.22;;;3.30;99.90;;;;;;5016822;28;20173;-76
2021/01/13 11:19:52;;;;;;;6.95;5.78;;;3.40;99.90;;;;;;5032104;28;20196;-77
2021/01/13 11:22:30;;;;;;;8.52;6.30;;;3.30;99.90;;;;;;5032260;28;20647;-75
2021/01/13 11:24:58;;;;;;;6.97;4.63;;;3.40;99.90;;;;;;5031550;28;20184;-77
2021/01/13 11:27:24;;;;;;;9.02;5.75;;;3.30;99.90;;;;;;5040181;28;20217;-77
2021/01/13 11:29:55;;;;;;;6.10;5.00;;;3.40;99.90;;;;;;5038167;28;20224;-77
2021/01/13 11:32:31;;;;;;;5.38;4.78;;;3.40;99.90;;;;;;5034677;28;20571;-77
2021/01/13 11:34:57;;;;;;;9.00;4.85;;;3.40;99.90;;;;;;5043772;28;20192;-77
2021/01/13 11:37:32;;;;;;;5.55;4.70;;;3.40;99.90;;;;;;5052106;28;20568;-77
2021/01/13 11:39:57;;;;;;;8.23;4.85;;;3.40;99.90;;;;;;5026727;28;20552;-77
2021/01/13 11:42:38;;;;;;;7.85;5.10;;;3.40;99.90;;;;;;5021384;28;20271;-77
2021/01/13 11:45:29;;;;;;;6.88;4.97;;;3.40;99.90;;;;;;5016672;28;20213;-77
2021/01/13 11:48:06;;;;;;;6.90;4.53;;;3.30;99.90;;;;;;5048471;28;20220;-77
2021/01/13 11:50:34;;;;;;;7.47;4.60;;;3.30;99.90;;;;;;5026675;28;20645;-77
2021/01/13 11:53:05;;;;;;;7.90;5.32;;;3.30;99.90;;;;;;5045264;28;20367;-76
2021/01/13 11:55:34;;;;;;;6.63;4.60;;;3.30;99.90;;;;;;5047808;28;20172;-77
2021/01/13 11:58:00;;;;;;;7.93;4.60;;;3.30;99.90;;;;;;5014133;28;20202;-77
2021/01/13 12:00:28;;;;;;;6.30;4.50;;;3.20;99.90;;;;;;5016087;28;20266;-77
2021/01/13 12:02:54;;;;;;;8.68;4.82;;;3.20;99.90;;;;;;5031055;28;20251;-77
2021/01/13 12:05:31;;;;;;;6.10;4.70;;;3.20;99.90;;;;;;5023649;28;20180;-77
2021/01/13 12:08:08;;;;;;;5.97;5.13;;;3.20;99.90;;;;;;5034345;28;20211;-77
2021/01/13 12:10:35;;;;;;;13.23;5.22;;;3.10;99.90;;;;;;5034473;28;20645;-77
2021/01/13 12:13:21;;;;;;;8.52;4.90;;;3.10;99.90;;;;;;5031408;28;20188;-77
2021/01/13 12:15:50;;;;;;;7.47;4.45;;;3.00;99.90;;;;;;5037788;28;20176;-77
2021/01/13 12:18:24;;;;;;;7.22;5.05;;;3.00;99.90;;;;;;5051700;28;20255;-76
2021/01/13 12:20:51;;;;;;;8.00;5.03;;;2.90;99.90;;;;;;5033728;28;20707;-77
2021/01/13 12:23:36;;;;;;;6.55;4.38;;;2.90;99.90;;;;;;5051377;28;20184;-76
2021/01/13 12:26:19;;;;;;;6.57;5.35;;;2.90;99.90;;;;;;5033464;28;20167;-76
2021/01/13 12:28:56;;;;;;;9.88;4.72;;;2.90;99.90;;;;;;5033906;28;20226;-77
2021/01/13 12:31:25;;;;;;;9.95;5.10;;;2.90;99.90;;;;;;5051601;28;20160;-76
2021/01/13 12:33:57;;;;;;;7.72;5.72;;;2.90;99.90;;;;;;5051774;28;20207;-77
2021/01/13 12:36:30;;;;;;;6.47;5.45;;;2.90;99.90;;;;;;5035628;28;20183;-76
2021/01/13 12:38:58;;;;;;;7.72;5.15;;;2.90;99.90;;;;;;5037349;28;20303;-78
2021/01/13 12:41:29;;;;;;;7.57;4.85;;;2.90;99.90;;;;;;5055061;28;20172;-78
2021/01/13 12:44:00;;;;;;;6.15;5.18;;;2.90;99.90;;;;;;5037539;28;20199;-79
2021/01/13 12:46:34;;;;;;;6.70;5.13;;;2.90;99.90;;;;;;5054538;28;20235;-79
2021/01/13 12:49:01;;;;;;;8.68;4.75;;;2.90;99.90;;;;;;5054473;28;20457;-78
2021/01/13 12:51:27;;;;;;;9.82;4.97;;;2.90;99.90;;;;;;5036970;28;20760;-79
2021/01/13 12:53:54;;;;;;;7.40;5.03;;;2.90;99.90;;;;;;5036933;28;20254;-79
2021/01/13 12:56:32;;;;;;;6.85;4.38;;;2.90;99.90;;;;;;5037349;28;20217;-79
2021/01/13 12:58:59;;;;;;;9.82;5.22;;;2.90;99.90;;;;;;5054902;28;20195;-80
2021/01/13 13:01:26;;;;;;;8.10;4.97;;;2.90;99.90;;;;;;5037321;28;20262;-78
2021/01/13 13:03:53;;;;;;;8.77;4.85;;;2.90;99.90;;;;;;5055142;28;20238;-78
2021/01/13 13:06:30;;;;;;;7.20;4.68;;;2.90;99.90;;;;;;5037225;28;20215;-78
2021/01/13 13:09:01;;;;;;;7.85;4.47;;;2.90;99.90;;;;;;5036622;28;20234;-78
2021/01/13 13:11:28;;;;;;;7.07;4.50;;;2.90;99.90;;;;;;5049929;28;20180;-78
2021/01/13 13:13:54;;;;;;;7.63;4.80;;;2.90;99.90;;;;;;5054749;28;20199;-78
2021/01/13 13:16:21;;;;;;;5.40;4.70;;;2.90;99.90;;;;;;5036970;28;20217;-78
2021/01/13 13:18:49;;;;;;;9.07;4.85;;;2.90;99.90;;;;;;5032508;28;20199;-79
2021/01/13 13:21:15;;;;;;;7.03;4.90;;;3.00;99.90;;;;;;5054103;28;20182;-76
2021/01/13 13:23:42;;;;;;;5.68;4.38;;;3.00;99.90;;;;;;5053897;28;20183;-77
2021/01/13 13:26:09;;;;;;;9.02;5.05;;;3.00;99.90;;;;;;5051240;28;20227;-76
2021/01/13 13:28:36;;;;;;;9.93;5.30;;;3.00;99.90;;;;;;5050190;28;20204;-76
2021/01/13 13:31:02;;;;;;;6.45;4.78;;;3.00;99.90;;;;;;5035314;28;20266;-76
2021/01/13 13:33:28;;;;;;;5.90;5.20;;;3.00;99.90;;;;;;5054489;28;20325;-77
2021/01/13 13:35:53;;;;;;;8.18;5.15;;;3.00;99.90;;;;;;5036195;28;20263;-75
2021/01/13 13:38:19;;;;;;;7.30;4.85;;;3.00;99.90;;;;;;5030084;28;20196;-76
2021/01/13 13:40:45;;;;;;;6.75;4.40;;;3.00;99.90;;;;;;5044646;28;20180;-76
2021/01/13 13:43:11;;;;;;;6.20;4.90;;;3.00;99.90;;;;;;5042426;28;20683;-76
2021/01/13 13:45:36;;;;;;;6.93;4.55;;;3.00;99.90;;;;;;5044107;28;20550;-76
2021/01/13 13:48:02;;;;;;;6.55;4.43;;;3.00;99.90;;;;;;5042069;28;20686;-76
2021/01/13 13:50:28;;;;;;;8.68;5.25;;;3.00;99.90;;;;;;5016152;28;20731;-76
2021/01/13 13:52:54;;;;;;;7.57;4.40;;;3.10;99.90;;;;;;5033962;28;20291;-76
2021/01/13 13:55:20;;;;;;;6.22;4.40;;;3.10;99.90;;;;;;5016361;28;20187;-76
2021/01/13 13:57:45;;;;;;;6.97;4.90;;;3.10;99.90;;;;;;5042889;28;20176;-76
2021/01/13 14:00:12;;;;;;;7.57;4.93;;;3.10;99.90;;;;;;5035771;28;20630;-76
2021/01/13 14:02:37;;;;;;;5.78;4.65;;;3.10;99.90;;;;;;5035144;28;20182;-76
2021/01/13 14:05:04;;;;;;;9.35;5.80;;;3.10;99.90;;;;;;5052233;28;20160;-76
2021/01/13 14:07:32;;;;;;;7.88;4.55;;;3.10;99.90;;;;;;5045386;28;20678;-77
2021/01/13 14:09:58;;;;;;;8.77;5.15;;;3.10;99.90;;;;;;5044414;28;20217;-77
2021/01/13 14:12:24;;;;;;;8.40;4.53;;;3.10;99.90;;;;;;5042318;28;20172;-77
2021/01/13 14:14:50;;;;;;;8.70;5.18;;;3.10;99.90;;;;;;5044301;28;20681;-76
2021/01/13 14:17:16;;;;;;;7.18;5.07;;;3.20;99.90;;;;;;5042752;28;20234;-77
2021/01/13 14:19:42;;;;;;;11.25;6.00;;;3.20;99.90;;;;;;5024703;28;20204;-78
2021/01/13 14:22:08;;;;;;;11.25;4.95;;;3.20;99.90;;;;;;5018291;28;20454;-76
2021/01/13 14:24:34;;;;;;;6.75;4.70;;;3.20;99.90;;;;;;5015478;28;20702;-77
2021/01/13 14:26:59;;;;;;;7.78;4.63;;;3.20;99.90;;;;;;5041215;28;20200;-78
2021/01/13 14:29:26;;;;;;;8.18;5.05;;;3.20;99.90;;;;;;5053068;28;20244;-78
2021/01/13 14:31:52;;;;;;;10.48;5.00;;;3.20;99.90;;;;;;5035149;28;20179;-78
2021/01/13 14:34:18;;;;;;;7.85;4.63;;;3.20;99.90;;;;;;5053372;28;20240;-78
2021/01/13 14:36:44;;;;;;;6.38;3.80;;;3.20;99.90;;;;;;5053070;28;20180;-78
2021/01/13 14:39:10;;;;;;;5.22;3.38;;;3.20;99.90;;;;;;5034815;28;20196;-78
2021/01/13 14:41:35;;;;;;;6.88;3.03;;;3.20;99.90;;;;;;5052767;28;20259;-78
2021/01/13 14:44:03;;;;;;;4.10;3.10;;;3.30;99.90;;;;;;5053019;28;20191;-79
2021/01/13 14:46:28;;;;;;;6.70;3.00;;;3.30;99.90;;;;;;5042911;28;20249;-77
2021/01/13 14:48:54;;;;;;;6.50;3.50;;;3.30;99.90;;;;;;5041626;28;20192;-77
2021/01/13 14:51:20;;;;;;;6.30;3.75;;;3.30;99.90;;;;;;5043545;28;20176;-77
2021/01/13 14:53:46;;;;;;;5.22;3.17;;;3.30;99.90;;;;;;5041695;28;20188;-76
2021/01/13 14:56:12;;;;;;;4.10;3.30;;;3.30;99.90;;;;;;5026477;28;20706;-78
2021/01/13 14:58:38;;;;;;;3.72;3.30;;;3.30;99.90;;;;;;5025059;28;20253;-77
2021/01/13 15:01:05;;;;;;;5.93;3.10;;;3.30;99.90;;;;;;5044634;28;20213;-77
2021/01/13 15:03:31;;;;;;;5.82;3.33;;;3.30;99.90;;;;;;5034303;28;20198;-77
2021/01/13 15:05:58;;;;;;;11.80;6.32;;;3.30;99.90;;;;;;5015182;28;20700;-76
2021/01/13 15:08:24;;;;;;;7.40;5.20;;;3.30;99.90;;;;;;5014494;28;20232;-76
2021/01/13 15:10:50;;;;;;;6.13;4.43;;;3.30;99.90;;;;;;5038793;28;20195;-75
2021/01/13 15:13:16;;;;;;;4.38;3.45;;;3.20;99.90;;;;;;5028214;28;20226;-75
2021/01/13 15:15:42;;;;;;;4.72;3.40;;;3.30;99.90;;;;;;5050451;28;20172;-76
2021/01/13 15:18:08;;;;;;;4.43;3.22;;;3.30;99.90;;;;;;5052229;28;20215;-75
2021/01/13 15:20:40;;;;;;;3.88;3.05;;;3.30;99.90;;;;;;5044226;28;20670;-75
2021/01/13 15:23:06;;;;;;;5.47;3.83;;;3.30;99.90;;;;;;5014120;28;20188;-75
2021/01/13 15:25:32;;;;;;;4.93;3.60;;;3.30;99.90;;;;;;5014762;28;20176;-76
2021/01/13 15:27:58;;;;;;;4.10;2.92;;;3.30;99.90;;;;;;5032533;28;20342;-75
2021/01/13 15:30:24;;;;;;;7.88;3.72;;;3.30;99.90;;;;;;5042034;28;20558;-76
2021/01/13 15:32:49;;;;;;;3.70;3.25;;;3.20;99.90;;;;;;5051605;28;20596;-77
2021/01/13 15:35:15;;;;;;;6.88;3.03;;;3.30;99.90;;;;;;5027039;28;20210;-76
2021/01/13 15:37:41;;;;;;;5.65;2.90;;;3.30;99.90;;;;;;5014475;28;20564;-76
2021/01/13 15:40:07;;;;;;;4.18;2.88;;;3.20;99.90;;;;;;5034180;28;20215;-76
2021/01/13 15:42:33;;;;;;;6.63;3.15;;;3.20;99.90;;;;;;5034782;28;20179;-78
2021/01/13 15:45:00;;;;;;;4.32;3.10;;;3.20;99.90;;;;;;5040795;28;20258;-78
2021/01/13 15:47:25;;;;;;;5.00;2.95;;;3.20;99.90;;;;;;5041302;28;20245;-77
2021/01/13 15:49:51;;;;;;;6.47;3.15;;;3.20;99.90;;;;;;5052036;28;20601;-79
2021/01/13 15:52:22;;;;;;;3.38;2.95;;;3.20;99.90;;;;;;5029125;28;20192;-79
2021/01/13 15:54:49;;;;;;;6.47;3.85;;;3.20;99.90;;;;;;5024045;28;20192;-78
2021/01/13 15:57:21;;;;;;;3.58;2.85;;;3.20;99.90;;;;;;5041551;28;20164;-79
2021/01/13 15:59:50;;;;;;;4.43;2.80;;;3.20;99.90;;;;;;5024550;28;20201;-79
2021/01/13 16:02:16;;;;;;;7.20;3.60;;;3.20;99.90;;;;;;5024011;28;20259;-80
2021/01/13 16:04:43;;;;;;;4.32;3.03;;;3.20;99.90;;;;;;5041415;28;20192;-80
2021/01/13 16:07:09;;;;;;;4.78;3.35;;;3.20;99.90;;;;;;5048796;28;20700;-80
2021/01/13 16:09:36;;;;;;;4.57;3.08;;;3.10;99.90;;;;;;5051414;28;20712;-80
2021/01/13 16:12:02;;;;;;;5.35;2.97;;;3.10;99.90;;;;;;5054929;28;20167;-79
2021/01/13 16:14:29;;;;;;;4.47;2.45;;;3.10;99.90;;;;;;5054879;28;20274;-79
2021/01/13 16:16:58;;;;;;;4.30;2.40;;;3.10;99.90;;;;;;5055929;28;20259;-80
2021/01/13 16:19:26;;;;;;;7.32;2.92;;;3.10;99.90;;;;;;5055771;28;20199;-80
2021/01/13 16:21:55;;;;;;;3.60;2.40;;;3.10;99.90;;;;;;5034485;28;20173;-78
2021/01/13 16:24:21;;;;;;;9.38;2.47;;;3.10;99.90;;;;;;5027061;28;20673;-79
2021/01/13 16:26:48;;;;;;;4.28;2.40;;;3.10;99.90;;;;;;5023203;28;20208;-79
2021/01/13 16:29:13;;;;;;;2.85;2.28;;;3.10;99.90;;;;;;5045403;28;20216;-78
2021/01/13 16:31:43;;;;;;;3.22;2.00;;;3.10;99.90;;;;;;5046009;28;20167;-79
2021/01/13 16:34:12;;;;;;;4.25;2.05;;;3.10;99.90;;;;;;5026242;28;20192;-79
2021/01/13 16:36:38;;;;;;;4.38;2.65;;;3.10;99.90;;;;;;5044468;28;20172;-77
2021/01/13 16:39:04;;;;;;;2.50;1.70;;;3.10;99.90;;;;;;5046051;28;20230;-78
2021/01/13 16:41:38;;;;;;;3.33;2.38;;;3.10;99.90;;;;;;5031648;28;20238;-79
2021/01/13 16:44:04;;;;;;;4.05;2.33;;;3.10;99.90;;;;;;5054782;28;20748;-79
2021/01/13 16:46:31;;;;;;;3.40;1.98;;;3.10;99.90;;;;;;5037883;28;20208;-78
2021/01/13 16:48:57;;;;;;;5.25;2.40;;;3.10;99.90;;;;;;5055163;28;20223;-77
2021/01/13 16:51:23;;;;;;;3.40;2.17;;;3.10;99.90;;;;;;5036558;28;20230;-78
2021/01/13 16:53:49;;;;;;;4.63;2.58;;;3.10;99.90;;;;;;5054350;28;20188;-78
2021/01/13 16:56:18;;;;;;;4.05;2.30;;;3.10;99.90;;;;;;5035384;28;20184;-79
2021/01/13 16:58:51;;;;;;;4.65;2.55;;;3.00;99.90;;;;;;5017219;28;20192;-79
2021/01/13 17:01:22;;;;;;;3.78;2.03;;;3.10;99.90;;;;;;5017129;28;20172;-79
2021/01/13 17:03:52;;;;;;;4.88;2.33;;;3.10;99.90;;;;;;5035021;28;20185;-79
2021/01/13 17:06:19;;;;;;;4.30;2.50;;;3.10;99.90;;;;;;5034629;28;20231;-79
2021/01/13 17:08:45;;;;;;;4.25;2.67;;;3.00;99.90;;;;;;5016474;28;20236;-79
2021/01/13 17:11:11;;;;;;;4.35;2.53;;;3.00;99.90;;;;;;5034888;28;20712;-78
2021/01/13 17:13:39;;;;;;;3.33;2.35;;;3.00;99.90;;;;;;5034408;28;20204;-79
2021/01/13 17:16:06;;;;;;;7.80;2.80;;;3.00;99.90;;;;;;5034664;28;20247;-79
2021/01/13 17:18:36;;;;;;;3.85;2.70;;;3.00;99.90;;;;;;5016968;28;20198;-79
2021/01/13 17:21:04;;;;;;;5.13;2.90;;;3.00;99.90;;;;;;5034019;28;20168;-78
2021/01/13 17:23:30;;;;;;;5.13;3.00;;;2.90;99.90;;;;;;5042504;28;20203;-79